sensor_id;sensor_type;location;lat;lon;timestamp;temperature;humidity
14723;DHT22;7452;55.594;12.986;2022-11-20T00:01:29;1.10;99.90
14723;DHT22;7452;55.594;12.986;2022-11-20T00:03:57;1.10;99.90
14723;DHT22;7452;55.594;12.986;2022-11-20T00:06:27;1.20;99.90
14723;DHT22;7452;55.594;12.986;2022-11-20T00:08:55;1.10;99.90
14723;DHT22;7452;55.594;12.986;2022-11-20T00:11:24;1.20;99.90
14723;DHT22;7452;55.594;12.986;2022-11-20T00:13:55;1.20;99.90
14723;DHT22;7452;55.594;12.986;2022-11-20T00:16:24;1.20;99.90
14723;DHT22;7452;55.594;12.986;2022-11-20T00:18:51;1.20;99.90
14723;DHT22;7452;55.594;12.986;2022-11-20T00:21:20;1.10;99.90
14723;DHT22;7452;55.594;12.986;2022-11-20T00:23:49;1.10;99.90
14723;DHT22;7452;55.594;12.986;2022-11-20T00:26:17;1.10;99.90
14723;DHT22;7452;55.594;12.986;2022-11-20T00:28:50;1.10;99.90
14723;DHT22;7452;55.594;12.986;2022-11-20T00:31:17;1.10;99.90
14723;DHT22;7452;55.594;12.986;2022-11-20T00:33:45;1.10;99.90
14723;DHT22;7452;55.594;12.986;2022-11-20T00:36:14;1.10;99.90
14723;DHT22;7452;55.594;12.986;2022-11-20T00:38:41;1.00;99.90
14723;DHT22;7452;55.594;12.986;2022-11-20T00:41:13;0.90;99.90
14723;DHT22;7452;55.594;12.986;2022-11-20T00:43:40;1.00;99.90
14723;DHT22;7452;55.594;12.986;2022-11-20T00:46:09;1.00;99.90
14723;DHT22;7452;55.594;12.986;2022-11-20T00:48:37;1.00;99.90
14723;DHT22;7452;55.594;12.986;2022-11-20T00:51:04;0.90;99.90
14723;DHT22;7452;55.594;12.986;2022-11-20T00:53:31;0.90;99.90
14723;DHT22;7452;55.594;12.986;2022-11-20T00:55:59;1.00;99.90
14723;DHT22;7452;55.594;12.986;2022-11-20T00:58:32;0.90;99.90
14723;DHT22;7452;55.594;12.986;2022-11-20T01:01:04;0.90;99.90
14723;DHT22;7452;55.594;12.986;2022-11-20T01:03:32;0.90;99.90
14723;DHT22;7452;55.594;12.986;2022-11-20T01:06:00;0.90;99.90
14723;DHT22;7452;55.594;12.986;2022-11-20T01:08:30;0.80;99.90
14723;DHT22;7452;55.594;12.986;2022-11-20T01:10:59;0.80;99.90
14723;DHT22;7452;55.594;12.986;2022-11-20T01:13:27;0.70;99.90
14723;DHT22;7452;55.594;12.986;2022-11-20T01:16:09;0.70;99.90
14723;DHT22;7452;55.594;12.986;2022-11-20T01:18:38;0.70;99.90
14723;DHT22;7452;55.594;12.986;2022-11-20T01:21:08;0.60;99.90
14723;DHT22;7452;55.594;12.986;2022-11-20T01:23:37;0.60;99.90
14723;DHT22;7452;55.594;12.986;2022-11-20T01:26:07;0.50;99.90
14723;DHT22;7452;55.594;12.986;2022-11-20T01:28:34;0.50;99.90
14723;DHT22;7452;55.594;12.986;2022-11-20T01:31:02;0.50;99.90
14723;DHT22;7452;55.594;12.986;2022-11-20T01:33:39;0.40;99.90
14723;DHT22;7452;55.594;12.986;2022-11-20T01:36:07;0.40;99.90
14723;DHT22;7452;55.594;12.986;2022-11-20T01:38:34;0.40;99.90
14723;DHT22;7452;55.594;12.986;2022-11-20T01:41:01;0.30;99.90
14723;DHT22;7452;55.594;12.986;2022-11-20T01:43:28;0.30;99.90
14723;DHT22;7452;55.594;12.986;2022-11-20T01:46:13;0.30;99.90
14723;DHT22;7452;55.594;12.986;2022-11-20T01:48:47;0.30;99.90
14723;DHT22;7452;55.594;12.986;2022-11-20T01:51:19;0.20;99.90
14723;DHT22;7452;55.594;12.986;2022-11-20T01:53:47;0.20;99.90
14723;DHT22;7452;55.594;12.986;2022-11-20T01:56:15;0.20;99.90
14723;DHT22;7452;55.594;12.986;2022-11-20T01:58:45;0.20;99.90
14723;DHT22;7452;55.594;12.986;2022-11-20T02:01:14;0.10;99.90
14723;DHT22;7452;55.594;12.986;2022-11-20T02:03:44;0.10;99.90
14723;DHT22;7452;55.594;12.986;2022-11-20T02:06:16;0.10;99.90
14723;DHT22;7452;55.594;12.986;2022-11-20T02:08:44;0.10;99.90
14723;DHT22;7452;55.594;12.986;2022-11-20T02:11:11;0.10;99.90
14723;DHT22;7452;55.594;12.986;2022-11-20T02:13:39;0.10;99.90
14723;DHT22;7452;55.594;12.986;2022-11-20T02:16:11;0.10;99.90
14723;DHT22;7452;55.594;12.986;2022-11-20T02:18:40;0.00;99.90
14723;DHT22;7452;55.594;12.986;2022-11-20T02:21:25;0.10;99.90
14723;DHT22;7452;55.594;12.986;2022-11-20T02:24:07;0.10;99.90
14723;DHT22;7452;55.594;12.986;2022-11-20T02:26:39;0.10;99.90
14723;DHT22;7452;55.594;12.986;2022-11-20T02:29:07;0.10;99.90
14723;DHT22;7452;55.594;12.986;2022-11-20T02:31:40;0.10;99.90
14723;DHT22;7452;55.594;12.986;2022-11-20T02:34:08;0.10;99.90
14723;DHT22;7452;55.594;12.986;2022-11-20T02:36:36;0.10;99.90
14723;DHT22;7452;55.594;12.986;2022-11-20T02:39:06;0.10;99.90
14723;DHT22;7452;55.594;12.986;2022-11-20T02:41:35;0.10;99.90
14723;DHT22;7452;55.594;12.986;2022-11-20T02:44:02;0.10;99.90
14723;DHT22;7452;55.594;12.986;2022-11-20T02:46:30;0.10;99.90
14723;DHT22;7452;55.594;12.986;2022-11-20T02:48:58;0.20;99.90
14723;DHT22;7452;55.594;12.986;2022-11-20T02:51:25;0.20;99.90
14723;DHT22;7452;55.594;12.986;2022-11-20T02:53:52;0.10;99.90
14723;DHT22;7452;55.594;12.986;2022-11-20T02:56:20;0.10;99.90
14723;DHT22;7452;55.594;12.986;2022-11-20T02:58:48;0.10;99.90
14723;DHT22;7452;55.594;12.986;2022-11-20T03:01:15;0.00;99.90
14723;DHT22;7452;55.594;12.986;2022-11-20T03:03:42;0.00;99.90
14723;DHT22;7452;55.594;12.986;2022-11-20T03:06:09;0.00;99.90
14723;DHT22;7452;55.594;12.986;2022-11-20T03:08:36;0.00;99.90
14723;DHT22;7452;55.594;12.986;2022-11-20T03:11:06;-0.10;99.90
14723;DHT22;7452;55.594;12.986;2022-11-20T03:13:35;-0.10;99.90
14723;DHT22;7452;55.594;12.986;2022-11-20T03:16:07;-0.10;99.90
14723;DHT22;7452;55.594;12.986;2022-11-20T03:18:34;-0.10;99.90
14723;DHT22;7452;55.594;12.986;2022-11-20T03:21:01;0.00;99.90
14723;DHT22;7452;55.594;12.986;2022-11-20T03:23:30;0.00;99.90
14723;DHT22;7452;55.594;12.986;2022-11-20T03:26:08;-0.10;99.90
14723;DHT22;7452;55.594;12.986;2022-11-20T03:28:36;-0.20;99.90
14723;DHT22;7452;55.594;12.986;2022-11-20T03:31:07;-0.20;99.90
14723;DHT22;7452;55.594;12.986;2022-11-20T03:33:35;-0.20;99.90
14723;DHT22;7452;55.594;12.986;2022-11-20T03:36:03;-0.20;99.90
14723;DHT22;7452;55.594;12.986;2022-11-20T03:38:30;-0.20;99.90
14723;DHT22;7452;55.594;12.986;2022-11-20T03:41:01;-0.30;99.90
14723;DHT22;7452;55.594;12.986;2022-11-20T03:43:29;-0.30;99.90
14723;DHT22;7452;55.594;12.986;2022-11-20T03:45:58;-0.30;99.90
14723;DHT22;7452;55.594;12.986;2022-11-20T03:48:26;-0.30;99.90
14723;DHT22;7452;55.594;12.986;2022-11-20T03:50:54;-0.40;99.90
14723;DHT22;7452;55.594;12.986;2022-11-20T03:53:33;-0.40;99.90
14723;DHT22;7452;55.594;12.986;2022-11-20T03:56:00;-0.40;99.90
14723;DHT22;7452;55.594;12.986;2022-11-20T03:58:27;-0.40;99.90
14723;DHT22;7452;55.594;12.986;2022-11-20T04:00:54;-0.40;99.90
14723;DHT22;7452;55.594;12.986;2022-11-20T04:03:22;-0.40;99.90
14723;DHT22;7452;55.594;12.986;2022-11-20T04:05:49;-0.40;99.90
14723;DHT22;7452;55.594;12.986;2022-11-20T04:08:16;-0.40;99.90
14723;DHT22;7452;55.594;12.986;2022-11-20T04:10:43;-0.40;99.90
14723;DHT22;7452;55.594;12.986;2022-11-20T04:13:10;-0.40;99.90
14723;DHT22;7452;55.594;12.986;2022-11-20T04:15:37;-0.50;99.90
14723;DHT22;7452;55.594;12.986;2022-11-20T04:18:04;-0.50;99.90
14723;DHT22;7452;55.594;12.986;2022-11-20T04:20:33;-0.60;99.90
14723;DHT22;7452;55.594;12.986;2022-11-20T04:23:00;-0.60;99.90
14723;DHT22;7452;55.594;12.986;2022-11-20T04:25:27;-0.50;99.90
14723;DHT22;7452;55.594;12.986;2022-11-20T04:27:54;-0.60;99.90
14723;DHT22;7452;55.594;12.986;2022-11-20T04:30:21;-0.60;99.90
14723;DHT22;7452;55.594;12.986;2022-11-20T04:32:48;-0.70;99.90
14723;DHT22;7452;55.594;12.986;2022-11-20T04:35:15;-0.70;99.90
14723;DHT22;7452;55.594;12.986;2022-11-20T04:37:44;-0.50;99.90
14723;DHT22;7452;55.594;12.986;2022-11-20T04:40:12;-0.70;99.90
14723;DHT22;7452;55.594;12.986;2022-11-20T04:42:39;-0.70;99.90
14723;DHT22;7452;55.594;12.986;2022-11-20T04:45:06;-0.70;99.90
14723;DHT22;7452;55.594;12.986;2022-11-20T04:47:34;-0.70;99.90
14723;DHT22;7452;55.594;12.986;2022-11-20T04:50:01;-0.80;99.90
14723;DHT22;7452;55.594;12.986;2022-11-20T04:52:28;-0.80;99.90
14723;DHT22;7452;55.594;12.986;2022-11-20T04:54:57;-0.80;99.90
14723;DHT22;7452;55.594;12.986;2022-11-20T04:57:24;-0.80;99.90
14723;DHT22;7452;55.594;12.986;2022-11-20T04:59:51;-0.80;99.90
14723;DHT22;7452;55.594;12.986;2022-11-20T05:02:18;-0.80;99.90
14723;DHT22;7452;55.594;12.986;2022-11-20T05:04:45;-0.80;99.90
14723;DHT22;7452;55.594;12.986;2022-11-20T05:07:12;-0.80;99.90
14723;DHT22;7452;55.594;12.986;2022-11-20T05:09:39;-0.80;99.90
14723;DHT22;7452;55.594;12.986;2022-11-20T05:12:09;-0.80;99.90
14723;DHT22;7452;55.594;12.986;2022-11-20T05:14:36;-0.80;99.90
14723;DHT22;7452;55.594;12.986;2022-11-20T05:17:03;-0.80;99.90
14723;DHT22;7452;55.594;12.986;2022-11-20T05:19:30;-0.90;99.90
14723;DHT22;7452;55.594;12.986;2022-11-20T05:21:57;-0.90;99.90
14723;DHT22;7452;55.594;12.986;2022-11-20T05:24:24;-0.80;99.90
14723;DHT22;7452;55.594;12.986;2022-11-20T05:26:51;-0.90;99.90
14723;DHT22;7452;55.594;12.986;2022-11-20T05:29:19;-0.90;99.90
14723;DHT22;7452;55.594;12.986;2022-11-20T05:31:46;-0.90;99.90
14723;DHT22;7452;55.594;12.986;2022-11-20T05:34:14;-0.90;99.90
14723;DHT22;7452;55.594;12.986;2022-11-20T05:36:41;-0.90;99.90
14723;DHT22;7452;55.594;12.986;2022-11-20T05:39:08;-1.00;99.90
14723;DHT22;7452;55.594;12.986;2022-11-20T05:41:35;-0.90;99.90
14723;DHT22;7452;55.594;12.986;2022-11-20T05:44:02;-0.90;99.90
14723;DHT22;7452;55.594;12.986;2022-11-20T05:46:30;-1.00;99.90
14723;DHT22;7452;55.594;12.986;2022-11-20T05:48:58;-0.90;99.90
14723;DHT22;7452;55.594;12.986;2022-11-20T05:51:25;-1.00;99.90
14723;DHT22;7452;55.594;12.986;2022-11-20T05:53:52;-0.90;99.90
14723;DHT22;7452;55.594;12.986;2022-11-20T05:56:21;-1.00;99.90
14723;DHT22;7452;55.594;12.986;2022-11-20T05:58:48;-1.00;99.90
14723;DHT22;7452;55.594;12.986;2022-11-20T06:01:17;-1.00;99.90
14723;DHT22;7452;55.594;12.986;2022-11-20T06:03:46;-1.10;99.90
14723;DHT22;7452;55.594;12.986;2022-11-20T06:06:14;-1.10;99.90
14723;DHT22;7452;55.594;12.986;2022-11-20T06:08:42;-1.00;99.90
14723;DHT22;7452;55.594;12.986;2022-11-20T06:11:11;-1.10;99.90
14723;DHT22;7452;55.594;12.986;2022-11-20T06:13:39;-1.10;99.90
14723;DHT22;7452;55.594;12.986;2022-11-20T06:16:06;-1.10;99.90
14723;DHT22;7452;55.594;12.986;2022-11-20T06:18:34;-1.10;99.90
14723;DHT22;7452;55.594;12.986;2022-11-20T06:21:05;-1.10;99.90
14723;DHT22;7452;55.594;12.986;2022-11-20T06:23:33;-1.10;99.90
14723;DHT22;7452;55.594;12.986;2022-11-20T06:26:02;-1.10;99.90
14723;DHT22;7452;55.594;12.986;2022-11-20T06:28:30;-1.20;99.90
14723;DHT22;7452;55.594;12.986;2022-11-20T06:30:57;-1.20;99.90
14723;DHT22;7452;55.594;12.986;2022-11-20T06:33:24;-1.20;99.90
14723;DHT22;7452;55.594;12.986;2022-11-20T06:35:51;-1.20;99.90
14723;DHT22;7452;55.594;12.986;2022-11-20T06:38:20;-1.20;99.90
14723;DHT22;7452;55.594;12.986;2022-11-20T06:40:47;-1.20;99.90
14723;DHT22;7452;55.594;12.986;2022-11-20T06:43:14;-1.20;99.90
14723;DHT22;7452;55.594;12.986;2022-11-20T06:45:41;-1.20;99.90
14723;DHT22;7452;55.594;12.986;2022-11-20T06:48:08;-1.20;99.90
14723;DHT22;7452;55.594;12.986;2022-11-20T06:50:36;-1.20;99.90
14723;DHT22;7452;55.594;12.986;2022-11-20T06:53:04;-1.20;99.90
14723;DHT22;7452;55.594;12.986;2022-11-20T06:55:33;-1.20;99.90
14723;DHT22;7452;55.594;12.986;2022-11-20T06:58:00;-1.20;99.90
14723;DHT22;7452;55.594;12.986;2022-11-20T07:00:27;-1.20;99.90
14723;DHT22;7452;55.594;12.986;2022-11-20T07:02:54;-1.30;99.90
14723;DHT22;7452;55.594;12.986;2022-11-20T07:05:21;-1.30;99.90
14723;DHT22;7452;55.594;12.986;2022-11-20T07:07:48;-1.30;99.90
14723;DHT22;7452;55.594;12.986;2022-11-20T07:10:15;-1.30;99.90
14723;DHT22;7452;55.594;12.986;2022-11-20T07:12:49;-1.30;99.90
14723;DHT22;7452;55.594;12.986;2022-11-20T07:15:16;-1.30;99.90
14723;DHT22;7452;55.594;12.986;2022-11-20T07:17:43;-1.30;99.90
14723;DHT22;7452;55.594;12.986;2022-11-20T07:20:10;-1.10;99.90
14723;DHT22;7452;55.594;12.986;2022-11-20T07:22:38;-1.20;99.90
14723;DHT22;7452;55.594;12.986;2022-11-20T07:25:05;-1.20;99.90
14723;DHT22;7452;55.594;12.986;2022-11-20T07:27:33;-1.20;99.90
14723;DHT22;7452;55.594;12.986;2022-11-20T07:30:03;-1.20;99.90
14723;DHT22;7452;55.594;12.986;2022-11-20T07:32:31;-1.20;99.90
14723;DHT22;7452;55.594;12.986;2022-11-20T07:34:58;-1.20;99.90
14723;DHT22;7452;55.594;12.986;2022-11-20T07:37:26;-1.20;99.90
14723;DHT22;7452;55.594;12.986;2022-11-20T07:39:53;-1.20;99.90
14723;DHT22;7452;55.594;12.986;2022-11-20T07:42:20;-1.20;99.90
14723;DHT22;7452;55.594;12.986;2022-11-20T07:44:47;-1.20;99.90
14723;DHT22;7452;55.594;12.986;2022-11-20T07:47:15;-1.20;99.90
14723;DHT22;7452;55.594;12.986;2022-11-20T07:49:42;-1.30;99.90
14723;DHT22;7452;55.594;12.986;2022-11-20T07:52:09;-1.20;99.90
14723;DHT22;7452;55.594;12.986;2022-11-20T07:54:36;-1.20;99.90
14723;DHT22;7452;55.594;12.986;2022-11-20T07:57:03;-1.10;99.90
14723;DHT22;7452;55.594;12.986;2022-11-20T07:59:30;-1.10;99.90
14723;DHT22;7452;55.594;12.986;2022-11-20T08:01:57;-1.10;99.90
14723;DHT22;7452;55.594;12.986;2022-11-20T08:04:25;-1.10;99.90
14723;DHT22;7452;55.594;12.986;2022-11-20T08:06:52;-1.10;99.90
14723;DHT22;7452;55.594;12.986;2022-11-20T08:09:19;-1.10;99.90
14723;DHT22;7452;55.594;12.986;2022-11-20T08:11:46;-1.10;99.90
14723;DHT22;7452;55.594;12.986;2022-11-20T08:14:30;-1.00;99.90
14723;DHT22;7452;55.594;12.986;2022-11-20T08:16:57;-0.90;99.90
14723;DHT22;7452;55.594;12.986;2022-11-20T08:19:26;-1.00;99.90
14723;DHT22;7452;55.594;12.986;2022-11-20T08:21:55;-0.90;99.90
14723;DHT22;7452;55.594;12.986;2022-11-20T08:24:22;-0.90;99.90
14723;DHT22;7452;55.594;12.986;2022-11-20T08:26:50;-0.90;99.90
14723;DHT22;7452;55.594;12.986;2022-11-20T08:29:20;-0.90;99.90
14723;DHT22;7452;55.594;12.986;2022-11-20T08:31:48;-0.80;99.90
14723;DHT22;7452;55.594;12.986;2022-11-20T08:34:15;-0.70;99.90
14723;DHT22;7452;55.594;12.986;2022-11-20T08:36:43;-0.60;99.90
14723;DHT22;7452;55.594;12.986;2022-11-20T08:39:11;-0.60;99.90
14723;DHT22;7452;55.594;12.986;2022-11-20T08:41:38;-0.60;99.90
14723;DHT22;7452;55.594;12.986;2022-11-20T08:44:07;-0.60;99.90
14723;DHT22;7452;55.594;12.986;2022-11-20T08:46:36;-0.60;99.90
14723;DHT22;7452;55.594;12.986;2022-11-20T08:49:04;-0.60;99.90
14723;DHT22;7452;55.594;12.986;2022-11-20T08:51:31;-0.60;99.90
14723;DHT22;7452;55.594;12.986;2022-11-20T08:54:00;-0.60;99.90
14723;DHT22;7452;55.594;12.986;2022-11-20T08:56:27;-0.60;99.90
14723;DHT22;7452;55.594;12.986;2022-11-20T08:58:54;-0.50;99.90
14723;DHT22;7452;55.594;12.986;2022-11-20T09:01:23;-0.40;99.90
14723;DHT22;7452;55.594;12.986;2022-11-20T09:03:50;-0.40;99.90
14723;DHT22;7452;55.594;12.986;2022-11-20T09:06:17;-0.30;99.90
14723;DHT22;7452;55.594;12.986;2022-11-20T09:08:44;-0.30;99.90
14723;DHT22;7452;55.594;12.986;2022-11-20T09:11:13;-0.30;99.90
14723;DHT22;7452;55.594;12.986;2022-11-20T09:13:40;-0.10;99.90
14723;DHT22;7452;55.594;12.986;2022-11-20T09:16:08;0.00;99.90
14723;DHT22;7452;55.594;12.986;2022-11-20T09:18:36;0.30;99.90
14723;DHT22;7452;55.594;12.986;2022-11-20T09:21:05;0.50;99.90
14723;DHT22;7452;55.594;12.986;2022-11-20T09:23:34;0.70;99.90
14723;DHT22;7452;55.594;12.986;2022-11-20T09:26:05;0.80;99.90
14723;DHT22;7452;55.594;12.986;2022-11-20T09:28:33;1.00;99.90
14723;DHT22;7452;55.594;12.986;2022-11-20T09:31:03;1.10;99.90
14723;DHT22;7452;55.594;12.986;2022-11-20T09:33:31;1.10;99.90
14723;DHT22;7452;55.594;12.986;2022-11-20T09:35:58;1.30;99.90
14723;DHT22;7452;55.594;12.986;2022-11-20T09:38:25;1.40;99.90
14723;DHT22;7452;55.594;12.986;2022-11-20T09:40:56;1.60;99.90
14723;DHT22;7452;55.594;12.986;2022-11-20T09:43:36;1.70;99.90
14723;DHT22;7452;55.594;12.986;2022-11-20T09:46:14;1.90;99.90
14723;DHT22;7452;55.594;12.986;2022-11-20T09:48:52;2.00;99.90
14723;DHT22;7452;55.594;12.986;2022-11-20T09:51:31;2.10;99.90
14723;DHT22;7452;55.594;12.986;2022-11-20T09:54:10;2.20;99.90
14723;DHT22;7452;55.594;12.986;2022-11-20T09:56:42;2.30;99.90
14723;DHT22;7452;55.594;12.986;2022-11-20T09:59:29;2.50;99.90
14723;DHT22;7452;55.594;12.986;2022-11-20T10:01:59;2.50;99.90
14723;DHT22;7452;55.594;12.986;2022-11-20T10:04:29;2.70;99.90
14723;DHT22;7452;55.594;12.986;2022-11-20T10:07:03;2.90;99.90
14723;DHT22;7452;55.594;12.986;2022-11-20T10:09:33;2.90;99.90
14723;DHT22;7452;55.594;12.986;2022-11-20T10:12:11;3.10;99.90
14723;DHT22;7452;55.594;12.986;2022-11-20T10:15:02;3.20;99.90
14723;DHT22;7452;55.594;12.986;2022-11-20T10:17:49;3.40;99.90
14723;DHT22;7452;55.594;12.986;2022-11-20T10:20:26;3.50;99.90
14723;DHT22;7452;55.594;12.986;2022-11-20T10:23:08;3.60;99.90
14723;DHT22;7452;55.594;12.986;2022-11-20T10:25:42;3.80;99.90
14723;DHT22;7452;55.594;12.986;2022-11-20T10:28:19;3.90;99.90
14723;DHT22;7452;55.594;12.986;2022-11-20T10:30:56;4.00;99.90
14723;DHT22;7452;55.594;12.986;2022-11-20T10:33:24;4.20;99.90
14723;DHT22;7452;55.594;12.986;2022-11-20T10:35:57;4.30;99.90
14723;DHT22;7452;55.594;12.986;2022-11-20T10:38:32;4.50;99.90
14723;DHT22;7452;55.594;12.986;2022-11-20T10:41:02;4.70;99.90
14723;DHT22;7452;55.594;12.986;2022-11-20T10:43:44;5.00;99.90
14723;DHT22;7452;55.594;12.986;2022-11-20T10:46:16;5.50;99.90
14723;DHT22;7452;55.594;12.986;2022-11-20T10:48:44;6.40;99.90
14723;DHT22;7452;55.594;12.986;2022-11-20T10:51:18;7.20;99.90
14723;DHT22;7452;55.594;12.986;2022-11-20T10:53:58;7.80;99.90
14723;DHT22;7452;55.594;12.986;2022-11-20T10:56:34;8.10;99.90
14723;DHT22;7452;55.594;12.986;2022-11-20T11:01:59;8.10;99.90
14723;DHT22;7452;55.594;12.986;2022-11-20T11:04:34;8.00;99.90
14723;DHT22;7452;55.594;12.986;2022-11-20T11:07:10;7.40;99.90
14723;DHT22;7452;55.594;12.986;2022-11-20T11:09:41;6.90;99.90
14723;DHT22;7452;55.594;12.986;2022-11-20T11:12:10;6.00;99.90
14723;DHT22;7452;55.594;12.986;2022-11-20T11:14:45;5.20;99.90
14723;DHT22;7452;55.594;12.986;2022-11-20T11:17:23;4.60;99.90
14723;DHT22;7452;55.594;12.986;2022-11-20T11:20:03;4.10;99.90
14723;DHT22;7452;55.594;12.986;2022-11-20T11:22:32;3.70;99.90
14723;DHT22;7452;55.594;12.986;2022-11-20T11:24:59;3.40;99.90
14723;DHT22;7452;55.594;12.986;2022-11-20T11:27:27;3.20;99.90
14723;DHT22;7452;55.594;12.986;2022-11-20T11:30:12;3.00;99.90
14723;DHT22;7452;55.594;12.986;2022-11-20T11:32:41;2.80;99.90
14723;DHT22;7452;55.594;12.986;2022-11-20T11:35:23;2.70;99.90
14723;DHT22;7452;55.594;12.986;2022-11-20T11:37:52;2.50;99.90
14723;DHT22;7452;55.594;12.986;2022-11-20T11:40:21;2.50;99.90
14723;DHT22;7452;55.594;12.986;2022-11-20T11:42:55;2.40;99.90
14723;DHT22;7452;55.594;12.986;2022-11-20T11:45:23;2.30;99.90
14723;DHT22;7452;55.594;12.986;2022-11-20T11:47:52;2.20;99.90
14723;DHT22;7452;55.594;12.986;2022-11-20T11:50:23;2.10;99.90
14723;DHT22;7452;55.594;12.986;2022-11-20T11:52:56;2.10;99.90
14723;DHT22;7452;55.594;12.986;2022-11-20T11:55:31;2.00;99.90
14723;DHT22;7452;55.594;12.986;2022-11-20T11:58:12;2.00;99.90
14723;DHT22;7452;55.594;12.986;2022-11-20T12:00:48;2.00;99.90
14723;DHT22;7452;55.594;12.986;2022-11-20T12:03:21;2.00;99.90
14723;DHT22;7452;55.594;12.986;2022-11-20T12:05:57;2.00;99.90
14723;DHT22;7452;55.594;12.986;2022-11-20T12:08:26;1.90;99.90
14723;DHT22;7452;55.594;12.986;2022-11-20T12:10:57;1.90;99.90
14723;DHT22;7452;55.594;12.986;2022-11-20T12:13:43;1.90;99.90
14723;DHT22;7452;55.594;12.986;2022-11-20T12:16:13;1.90;99.90
14723;DHT22;7452;55.594;12.986;2022-11-20T12:18:43;1.80;99.90
14723;DHT22;7452;55.594;12.986;2022-11-20T12:21:19;1.80;99.90
14723;DHT22;7452;55.594;12.986;2022-11-20T12:24:00;1.80;99.90
14723;DHT22;7452;55.594;12.986;2022-11-20T12:26:44;1.80;99.90
14723;DHT22;7452;55.594;12.986;2022-11-20T12:29:18;1.80;99.90
14723;DHT22;7452;55.594;12.986;2022-11-20T12:32:18;1.80;99.90
14723;DHT22;7452;55.594;12.986;2022-11-20T12:35:00;1.90;99.90
14723;DHT22;7452;55.594;12.986;2022-11-20T12:37:37;1.90;99.90
14723;DHT22;7452;55.594;12.986;2022-11-20T12:40:21;1.90;99.90
14723;DHT22;7452;55.594;12.986;2022-11-20T12:42:58;1.90;99.90
14723;DHT22;7452;55.594;12.986;2022-11-20T12:46:08;1.90;99.90
14723;DHT22;7452;55.594;12.986;2022-11-20T12:48:42;1.90;99.90
14723;DHT22;7452;55.594;12.986;2022-11-20T12:51:36;1.90;99.90
14723;DHT22;7452;55.594;12.986;2022-11-20T12:57:08;2.00;99.90
14723;DHT22;7452;55.594;12.986;2022-11-20T12:59:54;2.10;99.90
14723;DHT22;7452;55.594;12.986;2022-11-20T13:02:27;2.10;99.90
14723;DHT22;7452;55.594;12.986;2022-11-20T13:05:14;2.20;99.90
14723;DHT22;7452;55.594;12.986;2022-11-20T13:07:46;2.20;99.90
14723;DHT22;7452;55.594;12.986;2022-11-20T13:10:18;2.30;99.90
14723;DHT22;7452;55.594;12.986;2022-11-20T13:12:52;2.30;99.90
14723;DHT22;7452;55.594;12.986;2022-11-20T13:15:33;2.50;99.90
14723;DHT22;7452;55.594;12.986;2022-11-20T13:18:04;2.50;99.90
14723;DHT22;7452;55.594;12.986;2022-11-20T13:20:33;2.50;99.90
14723;DHT22;7452;55.594;12.986;2022-11-20T13:23:02;2.60;99.90
14723;DHT22;7452;55.594;12.986;2022-11-20T13:25:30;2.70;99.90
14723;DHT22;7452;55.594;12.986;2022-11-20T13:27:59;2.80;99.90
14723;DHT22;7452;55.594;12.986;2022-11-20T13:30:27;2.90;99.90
14723;DHT22;7452;55.594;12.986;2022-11-20T13:32:56;3.00;99.90
14723;DHT22;7452;55.594;12.986;2022-11-20T13:35:28;3.10;99.90
14723;DHT22;7452;55.594;12.986;2022-11-20T13:38:04;3.20;99.90
14723;DHT22;7452;55.594;12.986;2022-11-20T13:40:32;3.30;99.90
14723;DHT22;7452;55.594;12.986;2022-11-20T13:43:10;3.50;99.90
14723;DHT22;7452;55.594;12.986;2022-11-20T13:45:41;3.50;99.90
14723;DHT22;7452;55.594;12.986;2022-11-20T13:48:19;3.30;99.90
14723;DHT22;7452;55.594;12.986;2022-11-20T13:51:00;3.10;99.90
14723;DHT22;7452;55.594;12.986;2022-11-20T13:53:54;2.90;99.90
14723;DHT22;7452;55.594;12.986;2022-11-20T13:56:28;2.70;99.90
14723;DHT22;7452;55.594;12.986;2022-11-20T13:59:07;2.60;99.90
14723;DHT22;7452;55.594;12.986;2022-11-20T14:01:46;2.40;99.90
14723;DHT22;7452;55.594;12.986;2022-11-20T14:04:17;2.30;99.90
14723;DHT22;7452;55.594;12.986;2022-11-20T14:06:46;2.30;99.90
14723;DHT22;7452;55.594;12.986;2022-11-20T14:09:27;2.20;99.90
14723;DHT22;7452;55.594;12.986;2022-11-20T14:11:54;2.20;99.90
14723;DHT22;7452;55.594;12.986;2022-11-20T14:14:23;2.10;99.90
14723;DHT22;7452;55.594;12.986;2022-11-20T14:16:51;2.00;99.90
14723;DHT22;7452;55.594;12.986;2022-11-20T14:19:26;2.00;99.90
14723;DHT22;7452;55.594;12.986;2022-11-20T14:22:06;2.00;99.90
14723;DHT22;7452;55.594;12.986;2022-11-20T14:24:35;2.00;99.90
14723;DHT22;7452;55.594;12.986;2022-11-20T14:27:03;1.90;99.90
14723;DHT22;7452;55.594;12.986;2022-11-20T14:29:34;1.90;99.90
14723;DHT22;7452;55.594;12.986;2022-11-20T14:32:02;1.80;99.90
14723;DHT22;7452;55.594;12.986;2022-11-20T14:34:31;1.70;99.90
14723;DHT22;7452;55.594;12.986;2022-11-20T14:37:01;1.60;99.90
14723;DHT22;7452;55.594;12.986;2022-11-20T14:39:31;1.60;99.90
14723;DHT22;7452;55.594;12.986;2022-11-20T14:42:01;1.50;99.90
14723;DHT22;7452;55.594;12.986;2022-11-20T14:44:31;1.40;99.90
14723;DHT22;7452;55.594;12.986;2022-11-20T14:47:00;1.40;99.90
14723;DHT22;7452;55.594;12.986;2022-11-20T14:49:30;1.30;99.90
14723;DHT22;7452;55.594;12.986;2022-11-20T14:51:59;1.20;99.90
14723;DHT22;7452;55.594;12.986;2022-11-20T14:54:27;1.10;99.90
14723;DHT22;7452;55.594;12.986;2022-11-20T14:56:56;1.10;99.90
14723;DHT22;7452;55.594;12.986;2022-11-20T14:59:25;1.00;99.90
14723;DHT22;7452;55.594;12.986;2022-11-20T15:01:57;0.90;99.90
14723;DHT22;7452;55.594;12.986;2022-11-20T15:04:25;0.90;99.90
14723;DHT22;7452;55.594;12.986;2022-11-20T15:06:54;0.70;99.90
14723;DHT22;7452;55.594;12.986;2022-11-20T15:09:22;0.70;99.90
14723;DHT22;7452;55.594;12.986;2022-11-20T15:11:54;0.70;99.90
14723;DHT22;7452;55.594;12.986;2022-11-20T15:14:22;0.60;99.90
14723;DHT22;7452;55.594;12.986;2022-11-20T15:16:52;0.60;99.90
14723;DHT22;7452;55.594;12.986;2022-11-20T15:19:21;0.50;99.90
14723;DHT22;7452;55.594;12.986;2022-11-20T15:21:49;0.50;99.90
14723;DHT22;7452;55.594;12.986;2022-11-20T15:24:16;0.40;99.90
14723;DHT22;7452;55.594;12.986;2022-11-20T15:26:43;0.40;99.90
14723;DHT22;7452;55.594;12.986;2022-11-20T15:29:12;0.30;99.90
14723;DHT22;7452;55.594;12.986;2022-11-20T15:31:39;0.30;99.90
14723;DHT22;7452;55.594;12.986;2022-11-20T15:34:11;0.30;99.90
14723;DHT22;7452;55.594;12.986;2022-11-20T15:36:39;0.20;99.90
14723;DHT22;7452;55.594;12.986;2022-11-20T15:39:06;0.20;99.90
14723;DHT22;7452;55.594;12.986;2022-11-20T15:41:34;0.10;99.90
14723;DHT22;7452;55.594;12.986;2022-11-20T15:44:01;0.10;99.90
14723;DHT22;7452;55.594;12.986;2022-11-20T15:46:31;0.10;99.90
14723;DHT22;7452;55.594;12.986;2022-11-20T15:49:03;0.10;99.90
14723;DHT22;7452;55.594;12.986;2022-11-20T15:51:34;0.10;99.90
14723;DHT22;7452;55.594;12.986;2022-11-20T15:54:05;0.00;99.90
14723;DHT22;7452;55.594;12.986;2022-11-20T15:56:36;0.00;99.90
14723;DHT22;7452;55.594;12.986;2022-11-20T15:59:03;0.00;99.90
14723;DHT22;7452;55.594;12.986;2022-11-20T16:01:30;0.00;99.90
14723;DHT22;7452;55.594;12.986;2022-11-20T16:03:57;0.00;99.90
14723;DHT22;7452;55.594;12.986;2022-11-20T16:06:24;0.00;99.90